Terminal Aerodrome Forecast
Issued by NWS Cleveland, OH

Home | Current Version | Previous Version | Text Only | Print | Product List | Glossary Off
Versions: 1 2 3 4 5 6 7 8 9 10 11 12 13 14 15 16 17 18 19 20 21 22

000
FTUS41 KCLE 231700
TAFYNG
TAF
KYNG 231740Z 2318/2418 13010KT P6SM BKN010
      TEMPO 2319/2323 6SM BR SCT010 BKN030
     FM232300 12008KT P6SM BKN035
     FM240400 11007KT 6SM -SHRA BR BKN015
     FM240700 14006KT 4SM -SHRA BR OVC006
     FM241000 11008KT 3SM -SHRA BR OVC004
     FM241600 15014KT 6SM BR OVC007=

USA.gov is the U.S. government's official web portal to all federal, state and local government web resources and services.